sensor_id;sensor_type;location;lat;lon;timestamp;P1;durP1;ratioP1;P2;durP2;ratioP2
39918;SDS011;25589;51.552;13.424;2023-06-05T00:01:34;2.28;;;1.25;;
39918;SDS011;25589;51.552;13.424;2023-06-05T00:04:00;2.83;;;1.38;;
39918;SDS011;25589;51.552;13.424;2023-06-05T00:06:26;2.03;;;1.50;;
39918;SDS011;25589;51.552;13.424;2023-06-05T00:08:52;3.72;;;1.58;;
39918;SDS011;25589;51.552;13.424;2023-06-05T00:11:17;1.98;;;1.52;;
39918;SDS011;25589;51.552;13.424;2023-06-05T00:13:43;2.17;;;1.52;;
39918;SDS011;25589;51.552;13.424;2023-06-05T00:16:08;2.10;;;1.33;;
39918;SDS011;25589;51.552;13.424;2023-06-05T00:18:34;2.92;;;1.23;;
39918;SDS011;25589;51.552;13.424;2023-06-05T00:20:59;1.90;;;1.50;;
39918;SDS011;25589;51.552;13.424;2023-06-05T00:23:25;2.90;;;1.73;;
39918;SDS011;25589;51.552;13.424;2023-06-05T00:25:51;2.90;;;1.77;;
39918;SDS011;25589;51.552;13.424;2023-06-05T00:28:16;1.85;;;1.70;;
39918;SDS011;25589;51.552;13.424;2023-06-05T00:30:42;2.25;;;1.75;;
39918;SDS011;25589;51.552;13.424;2023-06-05T00:33:08;3.30;;;1.42;;
39918;SDS011;25589;51.552;13.424;2023-06-05T00:35:33;5.05;;;1.50;;
39918;SDS011;25589;51.552;13.424;2023-06-05T00:37:59;2.67;;;1.50;;
39918;SDS011;25589;51.552;13.424;2023-06-05T00:40:25;4.53;;;1.80;;
39918;SDS011;25589;51.552;13.424;2023-06-05T00:42:50;2.72;;;1.67;;
39918;SDS011;25589;51.552;13.424;2023-06-05T00:45:16;2.38;;;1.73;;
39918;SDS011;25589;51.552;13.424;2023-06-05T00:47:42;2.28;;;1.58;;
39918;SDS011;25589;51.552;13.424;2023-06-05T00:50:07;1.70;;;1.38;;
39918;SDS011;25589;51.552;13.424;2023-06-05T00:52:36;2.28;;;1.60;;
39918;SDS011;25589;51.552;13.424;2023-06-05T00:55:03;2.60;;;1.55;;
39918;SDS011;25589;51.552;13.424;2023-06-05T00:57:28;2.38;;;1.60;;
39918;SDS011;25589;51.552;13.424;2023-06-05T00:59:55;3.67;;;1.58;;
39918;SDS011;25589;51.552;13.424;2023-06-05T01:02:20;4.03;;;1.80;;
39918;SDS011;25589;51.552;13.424;2023-06-05T01:04:47;2.70;;;1.45;;
39918;SDS011;25589;51.552;13.424;2023-06-05T01:07:13;3.20;;;1.98;;
39918;SDS011;25589;51.552;13.424;2023-06-05T01:09:41;2.38;;;1.60;;
39918;SDS011;25589;51.552;13.424;2023-06-05T01:14:56;2.60;;;1.40;;
39918;SDS011;25589;51.552;13.424;2023-06-05T01:17:24;1.92;;;1.40;;
39918;SDS011;25589;51.552;13.424;2023-06-05T01:19:57;3.85;;;1.80;;
39918;SDS011;25589;51.552;13.424;2023-06-05T01:22:25;3.15;;;1.55;;
39918;SDS011;25589;51.552;13.424;2023-06-05T01:24:51;3.05;;;1.77;;
39918;SDS011;25589;51.552;13.424;2023-06-05T01:27:18;2.90;;;1.80;;
39918;SDS011;25589;51.552;13.424;2023-06-05T01:29:56;2.55;;;1.67;;
39918;SDS011;25589;51.552;13.424;2023-06-05T01:32:52;1.58;;;1.33;;
39918;SDS011;25589;51.552;13.424;2023-06-05T01:35:22;2.00;;;1.70;;
39918;SDS011;25589;51.552;13.424;2023-06-05T01:37:53;2.97;;;1.88;;
39918;SDS011;25589;51.552;13.424;2023-06-05T01:40:21;4.25;;;1.42;;
39918;SDS011;25589;51.552;13.424;2023-06-05T01:42:48;1.77;;;1.58;;
39918;SDS011;25589;51.552;13.424;2023-06-05T01:45:15;1.90;;;1.60;;
39918;SDS011;25589;51.552;13.424;2023-06-05T01:47:43;2.17;;;1.50;;
39918;SDS011;25589;51.552;13.424;2023-06-05T01:50:10;2.15;;;1.65;;
39918;SDS011;25589;51.552;13.424;2023-06-05T01:52:39;1.75;;;1.38;;
39918;SDS011;25589;51.552;13.424;2023-06-05T01:55:09;2.05;;;1.60;;
39918;SDS011;25589;51.552;13.424;2023-06-05T01:57:40;3.17;;;1.80;;
39918;SDS011;25589;51.552;13.424;2023-06-05T02:00:06;1.83;;;1.42;;
39918;SDS011;25589;51.552;13.424;2023-06-05T02:02:39;2.30;;;1.40;;
39918;SDS011;25589;51.552;13.424;2023-06-05T02:05:11;2.33;;;1.60;;
39918;SDS011;25589;51.552;13.424;2023-06-05T02:07:38;2.05;;;1.80;;
39918;SDS011;25589;51.552;13.424;2023-06-05T02:10:07;2.38;;;1.90;;
39918;SDS011;25589;51.552;13.424;2023-06-05T02:12:34;4.00;;;1.65;;
39918;SDS011;25589;51.552;13.424;2023-06-05T02:15:02;2.25;;;1.80;;
39918;SDS011;25589;51.552;13.424;2023-06-05T02:17:29;1.63;;;1.42;;
39918;SDS011;25589;51.552;13.424;2023-06-05T02:19:55;4.80;;;1.60;;
39918;SDS011;25589;51.552;13.424;2023-06-05T02:22:21;3.70;;;1.50;;
39918;SDS011;25589;51.552;13.424;2023-06-05T02:24:48;7.22;;;1.90;;
39918;SDS011;25589;51.552;13.424;2023-06-05T02:27:19;3.88;;;1.98;;
39918;SDS011;25589;51.552;13.424;2023-06-05T02:29:45;2.95;;;1.73;;
39918;SDS011;25589;51.552;13.424;2023-06-05T02:32:10;2.33;;;1.73;;
39918;SDS011;25589;51.552;13.424;2023-06-05T02:34:36;4.75;;;1.70;;
39918;SDS011;25589;51.552;13.424;2023-06-05T02:37:03;2.13;;;1.63;;
39918;SDS011;25589;51.552;13.424;2023-06-05T02:39:29;2.55;;;1.38;;
39918;SDS011;25589;51.552;13.424;2023-06-05T02:41:57;2.42;;;1.60;;
39918;SDS011;25589;51.552;13.424;2023-06-05T02:44:23;2.50;;;1.80;;
39918;SDS011;25589;51.552;13.424;2023-06-05T02:46:48;2.47;;;2.00;;
39918;SDS011;25589;51.552;13.424;2023-06-05T02:49:15;3.50;;;2.03;;
39918;SDS011;25589;51.552;13.424;2023-06-05T02:51:41;4.00;;;2.15;;
39918;SDS011;25589;51.552;13.424;2023-06-05T02:54:07;3.05;;;2.00;;
39918;SDS011;25589;51.552;13.424;2023-06-05T02:56:33;6.00;;;2.30;;
39918;SDS011;25589;51.552;13.424;2023-06-05T02:59:01;1.83;;;1.45;;
39918;SDS011;25589;51.552;13.424;2023-06-05T03:01:29;1.80;;;1.50;;
39918;SDS011;25589;51.552;13.424;2023-06-05T03:04:01;2.22;;;1.88;;
39918;SDS011;25589;51.552;13.424;2023-06-05T03:06:29;2.35;;;2.00;;
39918;SDS011;25589;51.552;13.424;2023-06-05T03:08:59;2.70;;;1.85;;
39918;SDS011;25589;51.552;13.424;2023-06-05T03:11:25;4.82;;;1.60;;
39918;SDS011;25589;51.552;13.424;2023-06-05T03:13:52;2.75;;;1.65;;
39918;SDS011;25589;51.552;13.424;2023-06-05T03:16:18;3.22;;;1.88;;
39918;SDS011;25589;51.552;13.424;2023-06-05T03:18:48;2.15;;;1.73;;
39918;SDS011;25589;51.552;13.424;2023-06-05T03:21:13;6.25;;;1.90;;
39918;SDS011;25589;51.552;13.424;2023-06-05T03:23:39;3.33;;;1.88;;
39918;SDS011;25589;51.552;13.424;2023-06-05T03:26:05;1.50;;;1.40;;
39918;SDS011;25589;51.552;13.424;2023-06-05T03:28:31;3.70;;;1.70;;
39918;SDS011;25589;51.552;13.424;2023-06-05T03:30:59;4.90;;;2.03;;
39918;SDS011;25589;51.552;13.424;2023-06-05T03:33:30;1.92;;;1.65;;
39918;SDS011;25589;51.552;13.424;2023-06-05T03:35:56;3.20;;;1.70;;
39918;SDS011;25589;51.552;13.424;2023-06-05T03:38:23;2.85;;;1.65;;
39918;SDS011;25589;51.552;13.424;2023-06-05T03:40:48;2.53;;;2.00;;
39918;SDS011;25589;51.552;13.424;2023-06-05T03:43:17;2.10;;;1.90;;
39918;SDS011;25589;51.552;13.424;2023-06-05T03:45:43;3.22;;;1.92;;
39918;SDS011;25589;51.552;13.424;2023-06-05T03:48:10;7.38;;;2.20;;
39918;SDS011;25589;51.552;13.424;2023-06-05T03:50:39;2.70;;;1.73;;
39918;SDS011;25589;51.552;13.424;2023-06-05T03:53:06;3.33;;;2.00;;
39918;SDS011;25589;51.552;13.424;2023-06-05T03:55:34;4.20;;;1.85;;
39918;SDS011;25589;51.552;13.424;2023-06-05T03:58:25;2.88;;;2.03;;
39918;SDS011;25589;51.552;13.424;2023-06-05T04:00:53;2.42;;;2.05;;
39918;SDS011;25589;51.552;13.424;2023-06-05T04:03:19;2.70;;;1.67;;
39918;SDS011;25589;51.552;13.424;2023-06-05T04:05:47;4.03;;;2.70;;
39918;SDS011;25589;51.552;13.424;2023-06-05T04:08:13;3.85;;;1.80;;
39918;SDS011;25589;51.552;13.424;2023-06-05T04:10:40;4.25;;;1.85;;
39918;SDS011;25589;51.552;13.424;2023-06-05T04:13:05;2.15;;;1.80;;
39918;SDS011;25589;51.552;13.424;2023-06-05T04:15:34;2.15;;;1.60;;
39918;SDS011;25589;51.552;13.424;2023-06-05T04:18:00;2.58;;;1.52;;
39918;SDS011;25589;51.552;13.424;2023-06-05T04:20:26;3.15;;;2.05;;
39918;SDS011;25589;51.552;13.424;2023-06-05T04:22:53;2.75;;;1.88;;
39918;SDS011;25589;51.552;13.424;2023-06-05T04:25:19;2.38;;;1.70;;
39918;SDS011;25589;51.552;13.424;2023-06-05T04:27:47;3.15;;;2.17;;
39918;SDS011;25589;51.552;13.424;2023-06-05T04:30:15;2.42;;;1.90;;
39918;SDS011;25589;51.552;13.424;2023-06-05T04:32:42;2.90;;;1.67;;
39918;SDS011;25589;51.552;13.424;2023-06-05T04:35:11;2.08;;;1.73;;
39918;SDS011;25589;51.552;13.424;2023-06-05T04:37:37;2.50;;;1.98;;
39918;SDS011;25589;51.552;13.424;2023-06-05T04:40:04;2.58;;;2.10;;
39918;SDS011;25589;51.552;13.424;2023-06-05T04:42:32;1.98;;;1.77;;
39918;SDS011;25589;51.552;13.424;2023-06-05T04:45:01;5.47;;;2.10;;
39918;SDS011;25589;51.552;13.424;2023-06-05T04:47:30;5.45;;;1.85;;
39918;SDS011;25589;51.552;13.424;2023-06-05T04:50:00;2.92;;;1.75;;
39918;SDS011;25589;51.552;13.424;2023-06-05T04:52:32;4.18;;;2.10;;
39918;SDS011;25589;51.552;13.424;2023-06-05T04:54:58;4.50;;;2.05;;
39918;SDS011;25589;51.552;13.424;2023-06-05T04:57:26;2.75;;;1.90;;
39918;SDS011;25589;51.552;13.424;2023-06-05T04:59:53;3.95;;;1.83;;
39918;SDS011;25589;51.552;13.424;2023-06-05T05:02:19;6.15;;;2.25;;
39918;SDS011;25589;51.552;13.424;2023-06-05T05:04:45;4.28;;;2.33;;
39918;SDS011;25589;51.552;13.424;2023-06-05T05:07:11;4.15;;;2.17;;
39918;SDS011;25589;51.552;13.424;2023-06-05T05:09:41;3.25;;;2.10;;
39918;SDS011;25589;51.552;13.424;2023-06-05T05:12:07;3.05;;;2.28;;
39918;SDS011;25589;51.552;13.424;2023-06-05T05:14:34;3.17;;;2.17;;
39918;SDS011;25589;51.552;13.424;2023-06-05T05:17:00;4.03;;;2.10;;
39918;SDS011;25589;51.552;13.424;2023-06-05T05:19:27;3.40;;;2.00;;
39918;SDS011;25589;51.552;13.424;2023-06-05T05:21:55;2.45;;;1.90;;
39918;SDS011;25589;51.552;13.424;2023-06-05T05:24:22;2.45;;;2.22;;
39918;SDS011;25589;51.552;13.424;2023-06-05T05:26:50;3.95;;;2.20;;
39918;SDS011;25589;51.552;13.424;2023-06-05T05:29:17;3.08;;;2.00;;
39918;SDS011;25589;51.552;13.424;2023-06-05T05:31:43;3.97;;;2.45;;
39918;SDS011;25589;51.552;13.424;2023-06-05T05:34:10;5.95;;;2.05;;
39918;SDS011;25589;51.552;13.424;2023-06-05T05:36:35;3.70;;;2.25;;
39918;SDS011;25589;51.552;13.424;2023-06-05T05:39:04;4.13;;;2.53;;
39918;SDS011;25589;51.552;13.424;2023-06-05T05:41:31;6.38;;;2.40;;
39918;SDS011;25589;51.552;13.424;2023-06-05T05:43:56;4.82;;;2.30;;
39918;SDS011;25589;51.552;13.424;2023-06-05T05:46:22;3.17;;;2.28;;
39918;SDS011;25589;51.552;13.424;2023-06-05T05:48:47;5.97;;;2.20;;
39918;SDS011;25589;51.552;13.424;2023-06-05T05:51:13;4.03;;;2.22;;
39918;SDS011;25589;51.552;13.424;2023-06-05T05:53:38;5.78;;;2.42;;
39918;SDS011;25589;51.552;13.424;2023-06-05T05:56:04;3.85;;;2.10;;
39918;SDS011;25589;51.552;13.424;2023-06-05T05:58:30;6.13;;;2.13;;
39918;SDS011;25589;51.552;13.424;2023-06-05T06:00:56;3.72;;;2.13;;
39918;SDS011;25589;51.552;13.424;2023-06-05T06:03:22;4.18;;;2.05;;
39918;SDS011;25589;51.552;13.424;2023-06-05T06:05:48;3.58;;;2.30;;
39918;SDS011;25589;51.552;13.424;2023-06-05T06:08:14;3.55;;;2.22;;
39918;SDS011;25589;51.552;13.424;2023-06-05T06:10:40;3.63;;;2.22;;
39918;SDS011;25589;51.552;13.424;2023-06-05T06:13:06;4.30;;;2.20;;
39918;SDS011;25589;51.552;13.424;2023-06-05T06:15:32;4.63;;;2.35;;
39918;SDS011;25589;51.552;13.424;2023-06-05T06:17:57;4.45;;;2.65;;
39918;SDS011;25589;51.552;13.424;2023-06-05T06:20:25;4.53;;;2.20;;
39918;SDS011;25589;51.552;13.424;2023-06-05T06:22:52;5.07;;;2.53;;
39918;SDS011;25589;51.552;13.424;2023-06-05T06:25:19;4.00;;;1.83;;
39918;SDS011;25589;51.552;13.424;2023-06-05T06:27:46;2.70;;;2.00;;
39918;SDS011;25589;51.552;13.424;2023-06-05T06:30:13;5.80;;;2.38;;
39918;SDS011;25589;51.552;13.424;2023-06-05T06:32:39;3.90;;;2.10;;
39918;SDS011;25589;51.552;13.424;2023-06-05T06:35:05;3.95;;;2.10;;
39918;SDS011;25589;51.552;13.424;2023-06-05T06:37:32;2.83;;;1.90;;
39918;SDS011;25589;51.552;13.424;2023-06-05T06:39:57;4.05;;;2.13;;
39918;SDS011;25589;51.552;13.424;2023-06-05T06:42:23;4.28;;;2.03;;
39918;SDS011;25589;51.552;13.424;2023-06-05T06:45:10;3.08;;;2.22;;
39918;SDS011;25589;51.552;13.424;2023-06-05T06:47:36;5.63;;;2.25;;
39918;SDS011;25589;51.552;13.424;2023-06-05T06:50:01;3.00;;;1.85;;
39918;SDS011;25589;51.552;13.424;2023-06-05T06:52:27;5.03;;;2.13;;
39918;SDS011;25589;51.552;13.424;2023-06-05T06:54:53;2.65;;;1.75;;
39918;SDS011;25589;51.552;13.424;2023-06-05T06:57:18;5.13;;;2.08;;
39918;SDS011;25589;51.552;13.424;2023-06-05T06:59:44;3.35;;;2.15;;
39918;SDS011;25589;51.552;13.424;2023-06-05T07:02:17;3.08;;;2.10;;
39918;SDS011;25589;51.552;13.424;2023-06-05T07:04:44;3.65;;;1.95;;
39918;SDS011;25589;51.552;13.424;2023-06-05T07:07:11;4.25;;;2.05;;
39918;SDS011;25589;51.552;13.424;2023-06-05T07:09:42;5.40;;;2.40;;
39918;SDS011;25589;51.552;13.424;2023-06-05T07:12:08;4.47;;;2.45;;
39918;SDS011;25589;51.552;13.424;2023-06-05T07:14:35;6.50;;;1.85;;
39918;SDS011;25589;51.552;13.424;2023-06-05T07:17:01;3.40;;;1.98;;
39918;SDS011;25589;51.552;13.424;2023-06-05T07:19:30;3.30;;;1.85;;
39918;SDS011;25589;51.552;13.424;2023-06-05T07:21:57;6.32;;;1.90;;
39918;SDS011;25589;51.552;13.424;2023-06-05T07:24:24;1.70;;;1.60;;
39918;SDS011;25589;51.552;13.424;2023-06-05T07:26:51;4.13;;;2.10;;
39918;SDS011;25589;51.552;13.424;2023-06-05T07:29:21;5.10;;;2.00;;
39918;SDS011;25589;51.552;13.424;2023-06-05T07:31:57;4.97;;;2.00;;
39918;SDS011;25589;51.552;13.424;2023-06-05T07:36:49;2.53;;;2.08;;
39918;SDS011;25589;51.552;13.424;2023-06-05T07:39:16;6.38;;;1.95;;
39918;SDS011;25589;51.552;13.424;2023-06-05T07:41:45;6.55;;;1.88;;
39918;SDS011;25589;51.552;13.424;2023-06-05T07:44:11;2.92;;;2.00;;
39918;SDS011;25589;51.552;13.424;2023-06-05T07:46:41;4.25;;;1.77;;
39918;SDS011;25589;51.552;13.424;2023-06-05T07:49:08;3.03;;;2.08;;
39918;SDS011;25589;51.552;13.424;2023-06-05T07:51:34;3.20;;;2.00;;
39918;SDS011;25589;51.552;13.424;2023-06-05T07:54:04;4.20;;;1.80;;
39918;SDS011;25589;51.552;13.424;2023-06-05T07:56:35;5.75;;;1.80;;
39918;SDS011;25589;51.552;13.424;2023-06-05T07:59:01;2.55;;;1.70;;
39918;SDS011;25589;51.552;13.424;2023-06-05T08:01:31;4.20;;;2.00;;
39918;SDS011;25589;51.552;13.424;2023-06-05T08:04:04;3.38;;;2.00;;
39918;SDS011;25589;51.552;13.424;2023-06-05T08:06:33;4.93;;;1.33;;
39918;SDS011;25589;51.552;13.424;2023-06-05T08:08:58;2.63;;;1.50;;
39918;SDS011;25589;51.552;13.424;2023-06-05T08:11:24;2.35;;;1.40;;
39918;SDS011;25589;51.552;13.424;2023-06-05T08:13:51;3.60;;;1.63;;
39918;SDS011;25589;51.552;13.424;2023-06-05T08:16:17;5.00;;;1.60;;
39918;SDS011;25589;51.552;13.424;2023-06-05T08:18:42;2.90;;;1.55;;
39918;SDS011;25589;51.552;13.424;2023-06-05T08:21:08;2.50;;;1.40;;
39918;SDS011;25589;51.552;13.424;2023-06-05T08:23:34;2.70;;;1.50;;
39918;SDS011;25589;51.552;13.424;2023-06-05T08:25:59;1.20;;;1.10;;
39918;SDS011;25589;51.552;13.424;2023-06-05T08:28:25;3.80;;;1.50;;
39918;SDS011;25589;51.552;13.424;2023-06-05T08:30:50;3.40;;;1.58;;
39918;SDS011;25589;51.552;13.424;2023-06-05T08:33:17;3.20;;;1.50;;
39918;SDS011;25589;51.552;13.424;2023-06-05T08:35:43;3.08;;;1.30;;
39918;SDS011;25589;51.552;13.424;2023-06-05T08:38:09;6.07;;;2.17;;
39918;SDS011;25589;51.552;13.424;2023-06-05T08:40:35;3.58;;;1.50;;
39918;SDS011;25589;51.552;13.424;2023-06-05T08:43:01;2.67;;;1.42;;
39918;SDS011;25589;51.552;13.424;2023-06-05T08:45:27;3.13;;;1.45;;
39918;SDS011;25589;51.552;13.424;2023-06-05T08:47:54;2.53;;;1.40;;
39918;SDS011;25589;51.552;13.424;2023-06-05T08:50:21;3.15;;;1.40;;
39918;SDS011;25589;51.552;13.424;2023-06-05T08:52:48;1.55;;;1.27;;
39918;SDS011;25589;51.552;13.424;2023-06-05T08:55:15;3.08;;;1.30;;
39918;SDS011;25589;51.552;13.424;2023-06-05T08:57:41;1.83;;;1.40;;
39918;SDS011;25589;51.552;13.424;2023-06-05T09:00:08;2.30;;;1.50;;
39918;SDS011;25589;51.552;13.424;2023-06-05T09:02:37;3.53;;;1.27;;
39918;SDS011;25589;51.552;13.424;2023-06-05T09:05:08;2.63;;;1.48;;
39918;SDS011;25589;51.552;13.424;2023-06-05T09:07:33;3.08;;;1.70;;
39918;SDS011;25589;51.552;13.424;2023-06-05T09:09:59;2.88;;;1.50;;
39918;SDS011;25589;51.552;13.424;2023-06-05T09:12:25;5.30;;;1.30;;
39918;SDS011;25589;51.552;13.424;2023-06-05T09:14:51;1.60;;;1.50;;
39918;SDS011;25589;51.552;13.424;2023-06-05T09:17:16;1.40;;;1.20;;
39918;SDS011;25589;51.552;13.424;2023-06-05T09:19:42;2.20;;;1.25;;
39918;SDS011;25589;51.552;13.424;2023-06-05T09:22:10;3.05;;;1.48;;
39918;SDS011;25589;51.552;13.424;2023-06-05T09:24:37;1.88;;;1.67;;
39918;SDS011;25589;51.552;13.424;2023-06-05T09:27:06;2.85;;;1.60;;
39918;SDS011;25589;51.552;13.424;2023-06-05T09:29:34;1.63;;;1.40;;
39918;SDS011;25589;51.552;13.424;2023-06-05T09:32:03;1.40;;;1.10;;
39918;SDS011;25589;51.552;13.424;2023-06-05T09:34:54;2.03;;;1.48;;
39918;SDS011;25589;51.552;13.424;2023-06-05T09:37:33;4.28;;;1.58;;
39918;SDS011;25589;51.552;13.424;2023-06-05T09:40:03;1.80;;;1.30;;
39918;SDS011;25589;51.552;13.424;2023-06-05T09:42:34;1.75;;;1.50;;
39918;SDS011;25589;51.552;13.424;2023-06-05T09:45:00;2.10;;;1.42;;
39918;SDS011;25589;51.552;13.424;2023-06-05T09:47:26;1.75;;;1.40;;
39918;SDS011;25589;51.552;13.424;2023-06-05T09:49:52;4.97;;;1.70;;
39918;SDS011;25589;51.552;13.424;2023-06-05T09:52:18;2.75;;;1.63;;
39918;SDS011;25589;51.552;13.424;2023-06-05T09:54:44;2.10;;;1.33;;
39918;SDS011;25589;51.552;13.424;2023-06-05T09:57:12;4.10;;;1.58;;
39918;SDS011;25589;51.552;13.424;2023-06-05T09:59:47;4.30;;;1.60;;
39918;SDS011;25589;51.552;13.424;2023-06-05T10:02:16;2.72;;;1.60;;
39918;SDS011;25589;51.552;13.424;2023-06-05T10:04:45;3.03;;;1.45;;
39918;SDS011;25589;51.552;13.424;2023-06-05T10:07:13;3.13;;;1.60;;
39918;SDS011;25589;51.552;13.424;2023-06-05T10:09:40;6.63;;;1.70;;
39918;SDS011;25589;51.552;13.424;2023-06-05T10:12:07;1.55;;;1.17;;
39918;SDS011;25589;51.552;13.424;2023-06-05T10:14:36;1.70;;;1.60;;
39918;SDS011;25589;51.552;13.424;2023-06-05T10:17:06;3.45;;;1.60;;
39918;SDS011;25589;51.552;13.424;2023-06-05T10:19:32;5.47;;;1.70;;
39918;SDS011;25589;51.552;13.424;2023-06-05T10:21:58;3.67;;;1.60;;
39918;SDS011;25589;51.552;13.424;2023-06-05T10:32:22;2.75;;;1.40;;
39918;SDS011;25589;51.552;13.424;2023-06-05T10:38:26;2.13;;;1.48;;
39918;SDS011;25589;51.552;13.424;2023-06-05T10:40:57;1.95;;;1.60;;
39918;SDS011;25589;51.552;13.424;2023-06-05T10:45:53;2.13;;;1.83;;
39918;SDS011;25589;51.552;13.424;2023-06-05T10:48:20;4.18;;;1.67;;
39918;SDS011;25589;51.552;13.424;2023-06-05T10:50:46;3.15;;;1.67;;
39918;SDS011;25589;51.552;13.424;2023-06-05T10:56:52;5.20;;;1.70;;
39918;SDS011;25589;51.552;13.424;2023-06-05T10:59:16;3.58;;;2.17;;
39918;SDS011;25589;51.552;13.424;2023-06-05T11:01:42;2.50;;;1.73;;
39918;SDS011;25589;51.552;13.424;2023-06-05T11:04:08;3.05;;;1.83;;
39918;SDS011;25589;51.552;13.424;2023-06-05T11:06:34;7.13;;;1.65;;
39918;SDS011;25589;51.552;13.424;2023-06-05T11:09:06;4.88;;;1.50;;
39918;SDS011;25589;51.552;13.424;2023-06-05T11:11:54;4.15;;;1.73;;
39918;SDS011;25589;51.552;13.424;2023-06-05T11:14:42;4.65;;;2.03;;
39918;SDS011;25589;51.552;13.424;2023-06-05T11:19:56;2.90;;;1.80;;
39918;SDS011;25589;51.552;13.424;2023-06-05T11:22:22;2.40;;;1.50;;
39918;SDS011;25589;51.552;13.424;2023-06-05T11:27:45;3.45;;;1.98;;
39918;SDS011;25589;51.552;13.424;2023-06-05T11:30:32;3.97;;;2.10;;
39918;SDS011;25589;51.552;13.424;2023-06-05T11:33:12;7.28;;;2.30;;
39918;SDS011;25589;51.552;13.424;2023-06-05T11:35:40;3.63;;;1.70;;
39918;SDS011;25589;51.552;13.424;2023-06-05T11:38:11;2.22;;;1.92;;
39918;SDS011;25589;51.552;13.424;2023-06-05T11:40:38;3.05;;;1.60;;
39918;SDS011;25589;51.552;13.424;2023-06-05T11:43:05;3.03;;;1.95;;
39918;SDS011;25589;51.552;13.424;2023-06-05T11:45:32;4.45;;;2.00;;
39918;SDS011;25589;51.552;13.424;2023-06-05T11:48:10;2.42;;;2.00;;
39918;SDS011;25589;51.552;13.424;2023-06-05T11:50:37;3.35;;;1.98;;
39918;SDS011;25589;51.552;13.424;2023-06-05T11:53:16;2.38;;;1.80;;
39918;SDS011;25589;51.552;13.424;2023-06-05T11:55:42;4.53;;;2.17;;
39918;SDS011;25589;51.552;13.424;2023-06-05T11:58:24;3.90;;;1.95;;
39918;SDS011;25589;51.552;13.424;2023-06-05T12:00:50;3.47;;;2.00;;
39918;SDS011;25589;51.552;13.424;2023-06-05T12:03:20;3.33;;;1.92;;
39918;SDS011;25589;51.552;13.424;2023-06-05T12:05:49;3.88;;;2.05;;
39918;SDS011;25589;51.552;13.424;2023-06-05T12:08:21;3.08;;;2.20;;
39918;SDS011;25589;51.552;13.424;2023-06-05T12:10:52;5.57;;;2.63;;
39918;SDS011;25589;51.552;13.424;2023-06-05T12:13:18;5.20;;;2.35;;
39918;SDS011;25589;51.552;13.424;2023-06-05T12:15:55;3.40;;;2.00;;
39918;SDS011;25589;51.552;13.424;2023-06-05T12:18:30;7.05;;;1.95;;
39918;SDS011;25589;51.552;13.424;2023-06-05T12:21:02;5.13;;;2.28;;
39918;SDS011;25589;51.552;13.424;2023-06-05T12:23:30;3.97;;;2.20;;
39918;SDS011;25589;51.552;13.424;2023-06-05T12:26:01;2.78;;;2.10;;
39918;SDS011;25589;51.552;13.424;2023-06-05T12:28:31;3.45;;;2.25;;
39918;SDS011;25589;51.552;13.424;2023-06-05T12:30:57;2.25;;;2.03;;
39918;SDS011;25589;51.552;13.424;2023-06-05T12:33:23;3.67;;;2.47;;
39918;SDS011;25589;51.552;13.424;2023-06-05T12:36:07;3.70;;;2.20;;
39918;SDS011;25589;51.552;13.424;2023-06-05T12:38:37;2.80;;;2.25;;
39918;SDS011;25589;51.552;13.424;2023-06-05T12:41:04;2.92;;;2.05;;
39918;SDS011;25589;51.552;13.424;2023-06-05T12:43:31;6.05;;;2.55;;
39918;SDS011;25589;51.552;13.424;2023-06-05T12:45:57;2.95;;;2.25;;
39918;SDS011;25589;51.552;13.424;2023-06-05T12:48:23;5.03;;;2.65;;
39918;SDS011;25589;51.552;13.424;2023-06-05T12:50:49;5.57;;;2.53;;
39918;SDS011;25589;51.552;13.424;2023-06-05T12:53:15;4.18;;;2.20;;
39918;SDS011;25589;51.552;13.424;2023-06-05T12:55:41;3.97;;;2.20;;
39918;SDS011;25589;51.552;13.424;2023-06-05T12:58:07;2.20;;;2.00;;
39918;SDS011;25589;51.552;13.424;2023-06-05T13:00:32;3.70;;;1.98;;
39918;SDS011;25589;51.552;13.424;2023-06-05T13:02:59;5.20;;;2.33;;
39918;SDS011;25589;51.552;13.424;2023-06-05T13:05:24;2.30;;;1.80;;
39918;SDS011;25589;51.552;13.424;2023-06-05T13:07:50;3.47;;;2.25;;
39918;SDS011;25589;51.552;13.424;2023-06-05T13:10:16;2.10;;;1.90;;
39918;SDS011;25589;51.552;13.424;2023-06-05T13:12:42;4.15;;;2.08;;
39918;SDS011;25589;51.552;13.424;2023-06-05T13:15:08;4.32;;;2.08;;
39918;SDS011;25589;51.552;13.424;2023-06-05T13:17:35;2.70;;;2.25;;
39918;SDS011;25589;51.552;13.424;2023-06-05T13:20:03;3.45;;;2.30;;
39918;SDS011;25589;51.552;13.424;2023-06-05T13:22:42;4.28;;;2.25;;
39918;SDS011;25589;51.552;13.424;2023-06-05T13:25:07;2.92;;;2.25;;
39918;SDS011;25589;51.552;13.424;2023-06-05T13:27:34;3.22;;;2.20;;
39918;SDS011;25589;51.552;13.424;2023-06-05T13:30:00;2.22;;;2.03;;
39918;SDS011;25589;51.552;13.424;2023-06-05T13:32:28;2.53;;;1.90;;
39918;SDS011;25589;51.552;13.424;2023-06-05T13:34:55;4.05;;;2.08;;
39918;SDS011;25589;51.552;13.424;2023-06-05T13:37:22;5.85;;;1.98;;
39918;SDS011;25589;51.552;13.424;2023-06-05T13:39:48;3.05;;;1.88;;
39918;SDS011;25589;51.552;13.424;2023-06-05T13:42:13;4.07;;;2.20;;
39918;SDS011;25589;51.552;13.424;2023-06-05T13:44:39;3.25;;;2.05;;
39918;SDS011;25589;51.552;13.424;2023-06-05T13:47:05;4.70;;;2.42;;
39918;SDS011;25589;51.552;13.424;2023-06-05T13:49:33;3.30;;;2.30;;
39918;SDS011;25589;51.552;13.424;2023-06-05T13:51:59;4.90;;;1.90;;
39918;SDS011;25589;51.552;13.424;2023-06-05T13:54:24;4.25;;;2.05;;
39918;SDS011;25589;51.552;13.424;2023-06-05T13:56:50;3.25;;;2.00;;
39918;SDS011;25589;51.552;13.424;2023-06-05T13:59:18;3.78;;;2.38;;
39918;SDS011;25589;51.552;13.424;2023-06-05T14:01:44;2.47;;;2.17;;
39918;SDS011;25589;51.552;13.424;2023-06-05T14:04:09;3.67;;;2.40;;
39918;SDS011;25589;51.552;13.424;2023-06-05T14:06:35;2.55;;;2.30;;
39918;SDS011;25589;51.552;13.424;2023-06-05T14:09:03;3.33;;;2.13;;
39918;SDS011;25589;51.552;13.424;2023-06-05T14:11:30;3.72;;;2.20;;
39918;SDS011;25589;51.552;13.424;2023-06-05T14:13:55;4.95;;;2.50;;
39918;SDS011;25589;51.552;13.424;2023-06-05T14:16:21;3.63;;;2.40;;
39918;SDS011;25589;51.552;13.424;2023-06-05T14:18:47;4.25;;;2.05;;
39918;SDS011;25589;51.552;13.424;2023-06-05T14:21:13;3.03;;;1.90;;
39918;SDS011;25589;51.552;13.424;2023-06-05T14:23:38;2.35;;;2.13;;
39918;SDS011;25589;51.552;13.424;2023-06-05T14:26:05;4.15;;;2.33;;
39918;SDS011;25589;51.552;13.424;2023-06-05T14:28:30;3.90;;;2.15;;
39918;SDS011;25589;51.552;13.424;2023-06-05T14:30:56;2.70;;;2.30;;
39918;SDS011;25589;51.552;13.424;2023-06-05T14:33:21;3.08;;;2.00;;
39918;SDS011;25589;51.552;13.424;2023-06-05T14:35:47;4.50;;;2.15;;
39918;SDS011;25589;51.552;13.424;2023-06-05T14:38:12;5.25;;;2.20;;
39918;SDS011;25589;51.552;13.424;2023-06-05T14:40:38;2.55;;;2.20;;
39918;SDS011;25589;51.552;13.424;2023-06-05T14:43:04;4.90;;;2.50;;
39918;SDS011;25589;51.552;13.424;2023-06-05T14:45:31;2.45;;;2.25;;
39918;SDS011;25589;51.552;13.424;2023-06-05T14:47:56;2.88;;;2.30;;
39918;SDS011;25589;51.552;13.424;2023-06-05T14:50:22;2.70;;;2.20;;
39918;SDS011;25589;51.552;13.424;2023-06-05T14:52:48;4.65;;;2.30;;
39918;SDS011;25589;51.552;13.424;2023-06-05T14:55:13;3.70;;;1.98;;
39918;SDS011;25589;51.552;13.424;2023-06-05T14:57:39;3.67;;;2.22;;
39918;SDS011;25589;51.552;13.424;2023-06-05T15:00:05;6.07;;;2.13;;
39918;SDS011;25589;51.552;13.424;2023-06-05T15:02:31;5.00;;;2.25;;
39918;SDS011;25589;51.552;13.424;2023-06-05T15:04:57;1.63;;;1.52;;